Time;durP1;ratioP1;P1;durP2;ratioP2;P2;SDS_P1;SDS_P2;PMS_P1;PMS_P2;Temp;Humidity;BMP_temperature;BMP_pressure;BME280_temperature;BME280_humidity;BME280_pressure;Samples;Min_cycle;Max_cycle;Signal;HPM_P1;HPM_P2
2024/04/10 00:00:33;;;;;;;0.40;0.40;;;;;;;6.23;100.00;99862.88;5468093;26;20021;-58
2024/04/10 00:03:05;;;;;;;0.40;0.40;;;;;;;6.26;100.00;99860.66;5466520;26;20478;-58
2024/04/10 00:05:34;;;;;;;0.40;0.40;;;;;;;6.18;100.00;99866.13;5438178;26;20002;-58
2024/04/10 00:08:02;;;;;;;0.40;0.40;;;;;;;6.10;100.00;99863.63;5459672;26;20132;-58
2024/04/10 00:10:30;;;;;;;0.38;0.38;;;;;;;6.07;100.00;99863.22;5467646;26;20006;-58
2024/04/10 00:12:57;;;;;;;0.40;0.40;;;;;;;5.97;100.00;99869.72;5434630;26;20650;-57
2024/04/10 00:15:26;;;;;;;0.30;0.30;;;;;;;6.05;100.00;99866.06;5437234;26;20736;-57
2024/04/10 00:17:52;;;;;;;0.40;0.40;;;;;;;6.06;100.00;99870.34;5470045;26;20002;-58
2024/04/10 00:20:23;;;;;;;0.40;0.40;;;;;;;6.17;100.00;99864.50;5469960;26;20469;-57
2024/04/10 00:22:52;;;;;;;0.40;0.40;;;;;;;6.15;100.00;99858.53;5451947;26;20007;-58
2024/04/10 00:25:24;;;;;;;0.30;0.30;;;;;;;6.08;100.00;99860.34;5462712;26;20025;-58
2024/04/10 00:27:50;;;;;;;0.40;0.40;;;;;;;6.00;100.00;99869.31;5461805;26;20013;-58
2024/04/10 00:30:19;;;;;;;0.38;0.38;;;;;;;6.01;100.00;99873.59;5425027;26;20002;-58
2024/04/10 00:32:46;;;;;;;0.40;0.40;;;;;;;5.95;100.00;99877.06;5465923;26;20017;-58
2024/04/10 00:35:15;;;;;;;0.40;0.40;;;;;;;5.87;100.00;99879.06;5405270;26;20433;-58
2024/04/10 00:37:44;;;;;;;0.40;0.40;;;;;;;5.92;100.00;99881.94;5466599;26;20045;-58
2024/04/10 00:40:13;;;;;;;0.30;0.30;;;;;;;5.82;100.00;99880.44;5452740;26;20093;-58
2024/04/10 00:42:39;;;;;;;0.40;0.40;;;;;;;5.87;100.00;99881.72;5449600;26;20013;-58
2024/04/10 00:45:09;;;;;;;0.40;0.40;;;;;;;5.96;100.00;99878.69;5467780;26;20022;-58
2024/04/10 00:47:35;;;;;;;0.40;0.40;;;;;;;5.99;100.00;99880.16;5458198;26;20003;-58
2024/04/10 00:50:07;;;;;;;0.30;0.30;;;;;;;6.24;100.00;99876.00;5463135;26;20003;-58
2024/04/10 00:52:33;;;;;;;0.40;0.40;;;;;;;6.41;100.00;99875.63;5429509;26;20018;-58
2024/04/10 00:55:04;;;;;;;0.40;0.40;;;;;;;6.44;100.00;99878.72;5466750;26;20016;-58
2024/04/10 00:57:31;;;;;;;0.40;0.40;;;;;;;6.55;100.00;99874.66;5471333;26;20448;-58
2024/04/10 00:59:59;;;;;;;0.50;0.50;;;;;;;6.60;100.00;99876.72;5462357;26;20003;-58
2024/04/10 01:02:25;;;;;;;0.40;0.40;;;;;;;6.59;100.00;99889.22;5476556;26;20084;-58
2024/04/10 01:04:54;;;;;;;0.30;0.30;;;;;;;6.61;100.00;99887.16;5440392;26;19998;-58
2024/04/10 01:07:20;;;;;;;0.30;0.30;;;;;;;6.75;100.00;99887.22;5471483;26;20016;-58
2024/04/10 01:09:49;;;;;;;0.32;0.32;;;;;;;6.81;100.00;99886.41;5465790;26;20449;-58
2024/04/10 01:12:17;;;;;;;0.50;0.50;;;;;;;6.81;100.00;99892.53;5463163;26;20029;-58
2024/04/10 01:14:47;;;;;;;0.40;0.40;;;;;;;6.65;100.00;99896.41;5460422;26;20082;-58
2024/04/10 01:17:13;;;;;;;0.40;0.40;;;;;;;6.78;100.00;99902.78;5457292;26;20696;-58
2024/04/10 01:19:42;;;;;;;0.30;0.30;;;;;;;6.63;100.00;99900.28;5436293;26;20495;-58
2024/04/10 01:22:08;;;;;;;0.40;0.40;;;;;;;6.58;100.00;99903.56;5468536;26;20006;-58
2024/04/10 01:24:39;;;;;;;0.40;0.40;;;;;;;6.53;100.00;99910.50;5480122;26;20063;-58
2024/04/10 01:27:05;;;;;;;0.40;0.40;;;;;;;6.67;100.00;99899.69;5458818;26;20022;-58
2024/04/10 01:29:34;;;;;;;0.30;0.30;;;;;;;6.46;100.00;99910.47;5439838;26;20075;-57
2024/04/10 01:32:00;;;;;;;0.40;0.40;;;;;;;6.49;100.00;99904.78;5462577;26;20455;-58
2024/04/10 01:34:28;;;;;;;0.35;0.35;;;;;;;6.71;100.00;99902.78;5464712;26;20973;-58
2024/04/10 01:36:54;;;;;;;0.30;0.30;;;;;;;6.76;100.00;99902.16;5459996;26;20654;-58
2024/04/10 01:39:23;;;;;;;0.40;0.40;;;;;;;6.82;100.00;99909.38;5462687;26;20007;-58
2024/04/10 01:41:52;;;;;;;0.30;0.30;;;;;;;6.70;100.00;99911.78;5456307;26;20428;-58
2024/04/10 01:44:21;;;;;;;0.40;0.40;;;;;;;6.63;100.00;99910.94;5458117;26;20006;-58
2024/04/10 01:46:47;;;;;;;0.40;0.40;;;;;;;6.65;100.00;99915.06;5461392;26;19998;-58
2024/04/10 01:49:15;;;;;;;0.30;0.30;;;;;;;6.62;100.00;99920.78;5453956;26;20772;-58
2024/04/10 01:51:44;;;;;;;0.30;0.30;;;;;;;6.63;100.00;99917.09;5448007;26;20025;-58
2024/04/10 01:54:10;;;;;;;0.30;0.30;;;;;;;6.78;100.00;99918.78;5463362;26;20431;-58
2024/04/10 01:56:39;;;;;;;0.40;0.40;;;;;;;6.65;100.00;99923.03;5454184;26;19998;-58
2024/04/10 01:59:07;;;;;;;0.40;0.40;;;;;;;6.69;100.00;99937.63;5437262;26;20010;-58
2024/04/10 02:01:37;;;;;;;0.30;0.30;;;;;;;6.57;100.00;99933.88;5462049;26;20024;-58
2024/04/10 02:04:03;;;;;;;0.30;0.30;;;;;;;6.50;100.00;99941.03;5457143;26;20598;-58
2024/04/10 02:06:31;;;;;;;0.40;0.40;;;;;;;6.56;100.00;99947.38;5467146;26;20837;-58
2024/04/10 02:08:57;;;;;;;0.30;0.30;;;;;;;6.47;100.00;99944.91;5464520;26;20015;-58
2024/04/10 02:11:28;;;;;;;0.30;0.30;;;;;;;6.61;100.00;99948.44;5427460;26;20039;-58
2024/04/10 02:13:55;;;;;;;0.40;0.40;;;;;;;6.58;100.00;99950.69;5450132;26;20003;-58
2024/04/10 02:16:27;;;;;;;0.40;0.40;;;;;;;6.47;100.00;99950.22;5430395;26;20014;-58
2024/04/10 02:18:54;;;;;;;0.50;0.50;;;;;;;6.50;100.00;99949.00;5461100;26;20011;-58
2024/04/10 02:21:23;;;;;;;0.30;0.30;;;;;;;6.31;100.00;99950.53;5462812;26;20330;-58
2024/04/10 02:23:49;;;;;;;0.30;0.30;;;;;;;6.18;100.00;99961.94;5467252;26;20006;-58
2024/04/10 02:26:19;;;;;;;0.43;0.43;;;;;;;6.22;100.00;99957.06;5449913;26;20099;-58
2024/04/10 02:28:46;;;;;;;0.40;0.40;;;;;;;5.95;100.00;99964.06;5463772;26;20460;-58
2024/04/10 02:31:14;;;;;;;0.47;0.47;;;;;;;5.82;100.00;99967.41;5466683;26;22225;-58
2024/04/10 02:33:44;;;;;;;0.40;0.40;;;;;;;5.49;100.00;99972.44;5469305;26;20002;-58
2024/04/10 02:36:12;;;;;;;0.30;0.30;;;;;;;5.26;100.00;99970.81;5461928;26;20003;-58
2024/04/10 02:38:39;;;;;;;0.50;0.50;;;;;;;5.27;100.00;99976.97;5457476;26;20007;-58
2024/04/10 02:41:07;;;;;;;0.40;0.40;;;;;;;5.04;100.00;99985.09;5424030;26;20035;-58
2024/04/10 02:43:34;;;;;;;0.32;0.32;;;;;;;5.01;100.00;99982.81;5464740;26;19999;-58
2024/04/10 02:46:03;;;;;;;0.40;0.40;;;;;;;4.93;100.00;99984.56;5467515;26;20021;-57
2024/04/10 02:48:29;;;;;;;0.50;0.50;;;;;;;5.20;100.00;99990.19;5463383;26;20005;-58
2024/04/10 02:51:00;;;;;;;0.50;0.50;;;;;;;5.30;100.00;99998.66;5452938;26;20025;-57
2024/04/10 02:53:26;;;;;;;0.50;0.50;;;;;;;5.54;100.00;99991.31;5472910;26;20002;-57
2024/04/10 02:55:56;;;;;;;0.50;0.50;;;;;;;5.71;100.00;100003.31;5465358;26;20021;-57
2024/04/10 02:58:24;;;;;;;0.50;0.50;;;;;;;5.82;100.00;100010.81;5460226;26;20062;-57
2024/04/10 03:00:52;;;;;;;0.40;0.40;;;;;;;5.80;100.00;100004.84;5431830;26;20010;-58
2024/04/10 03:03:20;;;;;;;0.40;0.40;;;;;;;5.77;100.00;100005.25;5460033;26;20623;-58
2024/04/10 03:05:47;;;;;;;0.35;0.35;;;;;;;5.88;100.00;100013.72;5461584;26;20108;-58
2024/04/10 03:08:18;;;;;;;0.50;0.50;;;;;;;5.79;100.00;100010.34;5467276;26;22065;-58
2024/04/10 03:10:44;;;;;;;0.40;0.40;;;;;;;5.82;100.00;100021.44;5462288;26;20010;-57
2024/04/10 03:13:13;;;;;;;0.40;0.40;;;;;;;5.75;100.00;100015.25;5454339;26;20023;-58
2024/04/10 03:15:39;;;;;;;0.45;0.45;;;;;;;5.96;100.00;100029.56;5468003;26;20436;-58
2024/04/10 03:18:09;;;;;;;0.50;0.50;;;;;;;5.84;100.00;100038.03;5454814;26;20494;-58
2024/04/10 03:20:35;;;;;;;0.30;0.30;;;;;;;5.89;100.00;100042.78;5432327;26;20022;-58
2024/04/10 03:23:05;;;;;;;0.43;0.43;;;;;;;5.79;100.00;100048.44;5463374;26;20755;-58
2024/04/10 03:25:34;;;;;;;0.40;0.40;;;;;;;5.73;100.00;100053.69;5464098;26;20081;-58
2024/04/10 03:28:02;;;;;;;0.45;0.45;;;;;;;5.75;100.00;100063.13;5429608;26;19999;-58
2024/04/10 03:30:28;;;;;;;0.40;0.40;;;;;;;5.70;100.00;100065.53;5464840;26;20440;-58
2024/04/10 03:32:57;;;;;;;0.50;0.50;;;;;;;5.58;100.00;100067.03;5466715;26;20654;-58
2024/04/10 03:35:24;;;;;;;0.40;0.40;;;;;;;5.73;100.00;100061.66;5467323;26;20002;-58
2024/04/10 03:37:53;;;;;;;0.47;0.47;;;;;;;5.64;100.00;100071.59;5436772;26;20006;-58
2024/04/10 03:40:19;;;;;;;0.40;0.40;;;;;;;5.59;100.00;100074.00;5465179;26;20002;-58
2024/04/10 03:42:53;;;;;;;0.40;0.40;;;;;;;5.63;100.00;100078.75;5456944;26;20030;-58
2024/04/10 03:45:22;;;;;;;0.40;0.40;;;;;;;5.65;100.00;100073.25;5436600;26;20438;-58
2024/04/10 03:47:52;;;;;;;0.50;0.50;;;;;;;5.66;100.00;100074.88;5460149;26;20021;-60
2024/04/10 03:50:21;;;;;;;0.40;0.40;;;;;;;5.51;100.00;100072.28;5462416;26;20005;-57
2024/04/10 03:52:49;;;;;;;0.38;0.38;;;;;;;5.53;100.00;100090.72;5463734;26;20010;-58
2024/04/10 03:55:17;;;;;;;0.50;0.50;;;;;;;5.33;100.00;100087.84;5429286;26;20433;-58
2024/04/10 03:57:52;;;;;;;0.32;0.32;;;;;;;5.13;100.00;100095.59;5461029;26;20017;-58
2024/04/10 04:00:18;;;;;;;0.40;0.40;;;;;;;5.25;100.00;100107.38;5474847;26;20764;-58
2024/04/10 04:02:47;;;;;;;0.43;0.43;;;;;;;5.09;100.00;100115.56;5473975;26;20010;-58
2024/04/10 04:05:14;;;;;;;0.52;0.52;;;;;;;5.00;100.00;100127.31;5433488;26;20437;-58
2024/04/10 04:07:43;;;;;;;0.40;0.40;;;;;;;4.90;100.00;100123.09;5456978;26;20017;-56
2024/04/10 04:10:09;;;;;;;0.40;0.40;;;;;;;4.96;100.00;100138.28;5469399;26;20019;-58
2024/04/10 04:12:37;;;;;;;0.47;0.47;;;;;;;4.70;100.00;100132.63;5434359;26;20057;-58
2024/04/10 04:15:07;;;;;;;0.40;0.40;;;;;;;4.70;100.00;100137.91;5465563;26;20017;-58
2024/04/10 04:17:36;;;;;;;0.47;0.47;;;;;;;4.65;100.00;100135.00;5449204;26;20018;-58
2024/04/10 04:20:02;;;;;;;0.50;0.50;;;;;;;4.50;100.00;100143.75;5467264;26;20017;-58
2024/04/10 04:22:31;;;;;;;0.40;0.40;;;;;;;4.63;100.00;100151.09;5469872;26;20031;-58
2024/04/10 04:24:57;;;;;;;0.60;0.60;;;;;;;4.60;100.00;100150.63;5464281;26;20029;-58
2024/04/10 04:27:32;;;;;;;0.40;0.40;;;;;;;4.53;100.00;100166.47;5462062;26;20022;-58
2024/04/10 04:29:58;;;;;;;0.57;0.57;;;;;;;4.60;100.00;100167.41;5466009;26;20006;-58
2024/04/10 04:32:31;;;;;;;0.40;0.40;;;;;;;4.61;100.00;100171.69;5456376;26;20078;-57
2024/04/10 04:34:58;;;;;;;0.50;0.50;;;;;;;4.59;100.00;100189.63;5393281;26;20025;-59
2024/04/10 04:37:26;;;;;;;0.60;0.60;;;;;;;4.48;100.00;100187.41;5452821;26;20096;-59
2024/04/10 04:39:53;;;;;;;0.50;0.50;;;;;;;4.68;100.00;100188.56;5454806;26;20002;-59
2024/04/10 04:42:22;;;;;;;0.40;0.40;;;;;;;4.65;100.00;100190.75;5411630;26;20007;-59
2024/04/10 04:44:49;;;;;;;0.52;0.52;;;;;;;4.60;100.00;100201.09;5458950;26;20082;-59
2024/04/10 04:47:18;;;;;;;0.57;0.57;;;;;;;4.53;100.00;100196.47;5450371;26;20017;-58
2024/04/10 04:49:46;;;;;;;0.47;0.47;;;;;;;4.61;100.00;100203.53;5430765;26;20451;-59
2024/04/10 04:52:15;;;;;;;0.50;0.50;;;;;;;4.59;100.00;100207.38;5452834;26;20046;-58
2024/04/10 04:54:41;;;;;;;0.50;0.50;;;;;;;4.59;100.00;100220.66;5463821;26;20010;-59
2024/04/10 04:57:12;;;;;;;0.60;0.60;;;;;;;4.53;100.00;100211.59;5431951;26;20010;-59
2024/04/10 04:59:40;;;;;;;;;;;;;;;4.58;100.00;100217.19;5469724;26;20017;-59
2024/04/10 05:02:07;;;;;;;0.50;0.50;;;;;;;4.51;100.00;100218.91;5449034;26;19924;-59
2024/04/10 05:07:23;;;;;;;0.65;0.65;;;;;;;4.59;100.00;100220.66;5466020;26;19998;-59
2024/04/10 05:09:52;;;;;;;0.55;0.55;;;;;;;4.86;100.00;100237.84;5468084;26;20002;-59
2024/04/10 05:12:18;;;;;;;0.50;0.50;;;;;;;5.00;100.00;100234.41;5465839;26;20825;-59
2024/04/10 05:14:50;;;;;;;0.65;0.65;;;;;;;5.21;100.00;100238.19;5409866;26;20470;-58
2024/04/10 05:17:16;;;;;;;0.60;0.60;;;;;;;5.12;100.00;100248.09;5463973;26;20024;-59
2024/04/10 05:19:45;;;;;;;0.60;0.60;;;;;;;5.15;100.00;100250.38;5470214;26;20067;-59
2024/04/10 05:22:11;;;;;;;0.55;0.55;;;;;;;5.09;100.00;100254.59;5464594;26;20002;-59
2024/04/10 05:24:43;;;;;;;0.63;0.63;;;;;;;5.39;100.00;100271.38;5454281;26;20024;-59
2024/04/10 05:27:10;;;;;;;0.60;0.60;;;;;;;6.02;100.00;100269.13;5459534;26;20002;-59
2024/04/10 05:29:39;;;;;;;0.55;0.55;;;;;;;6.58;100.00;100280.97;5463396;26;20013;-59
2024/04/10 05:32:06;;;;;;;0.70;0.70;;;;;;;6.95;100.00;100281.72;5459669;26;20067;-59
2024/04/10 05:34:34;;;;;;;0.60;0.60;;;;;;;6.70;100.00;100290.91;5454100;26;20019;-59
2024/04/10 05:37:00;;;;;;;0.60;0.60;;;;;;;7.16;100.00;100294.16;5430338;26;20341;-59
2024/04/10 05:39:29;;;;;;;0.68;0.68;;;;;;;7.53;100.00;100296.47;5452854;26;20046;-59
2024/04/10 05:42:04;;;;;;;0.60;0.60;;;;;;;7.33;100.00;100300.84;5457433;26;20002;-59
2024/04/10 05:44:33;;;;;;;0.63;0.63;;;;;;;7.93;100.00;100307.34;5449433;26;20003;-59
2024/04/10 05:47:00;;;;;;;0.57;0.57;;;;;;;8.03;97.78;100316.81;5442025;26;20006;-59
2024/04/10 05:49:28;;;;;;;0.50;0.50;;;;;;;8.42;96.04;100311.66;5466004;26;20011;-59
2024/04/10 05:51:55;;;;;;;0.50;0.50;;;;;;;8.63;94.19;100312.50;5459421;26;20340;-59
2024/04/10 05:54:23;;;;;;;0.52;0.52;;;;;;;8.90;91.77;100312.56;5468543;26;20030;-61
2024/04/10 05:56:49;;;;;;;0.30;0.30;;;;;;;10.21;84.33;100323.22;5461023;26;20054;-60
2024/04/10 05:59:21;;;;;;;0.40;0.40;;;;;;;10.11;84.19;100328.19;5459522;26;20036;-60
2024/04/10 06:01:47;;;;;;;0.40;0.40;;;;;;;10.33;81.93;100328.72;5447422;26;20002;-60
2024/04/10 06:04:16;;;;;;;0.30;0.30;;;;;;;9.61;85.21;100339.47;5457505;26;20002;-60
2024/04/10 06:06:42;;;;;;;0.38;0.38;;;;;;;10.00;84.69;100339.56;5406300;26;20014;-59
2024/04/10 06:09:11;;;;;;;0.40;0.40;;;;;;;11.09;80.24;100340.44;5467740;26;20417;-58
2024/04/10 06:11:37;;;;;;;0.30;0.30;;;;;;;11.93;72.40;100354.31;5465255;26;20441;-58
2024/04/10 06:14:06;;;;;;;0.30;0.30;;;;;;;11.67;74.94;100350.84;5461154;26;20033;-58
2024/04/10 06:16:35;;;;;;;0.30;0.30;;;;;;;13.35;67.08;100351.09;5463559;26;20002;-58
2024/04/10 06:19:04;;;;;;;0.20;0.20;;;;;;;13.96;61.62;100355.19;5464928;26;20082;-58
2024/04/10 06:21:30;;;;;;;0.20;0.20;;;;;;;14.57;58.33;100352.09;5426916;26;20007;-58
2024/04/10 06:23:58;;;;;;;0.20;0.20;;;;;;;15.13;56.06;100366.59;5456953;26;20002;-58
2024/04/10 06:26:24;;;;;;;0.20;0.20;;;;;;;14.63;56.50;100361.94;5452332;26;20017;-58
2024/04/10 06:28:54;;;;;;;0.20;0.20;;;;;;;15.42;53.51;100369.19;5461980;26;20042;-58
2024/04/10 06:31:20;;;;;;;0.10;0.10;;;;;;;14.98;54.49;100371.75;5429164;26;20002;-58
2024/04/10 06:33:52;;;;;;;0.10;0.10;;;;;;;15.50;54.06;100382.28;5468499;26;20010;-58
2024/04/10 06:36:18;;;;;;;0.10;0.10;;;;;;;14.00;58.29;100380.63;5441662;26;20469;-59
2024/04/10 06:38:47;;;;;;;0.10;0.10;;;;;;;16.52;50.37;100388.28;5455231;26;20050;-59
2024/04/10 06:41:13;;;;;;;0.10;0.10;;;;;;;16.32;51.24;100384.25;5449243;26;20278;-59
2024/04/10 06:43:42;;;;;;;0.10;0.10;;;;;;;16.79;49.77;100382.91;5456901;26;20034;-59
2024/04/10 06:46:07;;;;;;;0.20;0.20;;;;;;;17.31;47.88;100385.00;5468572;26;19999;-59
2024/04/10 06:48:36;;;;;;;0.10;0.10;;;;;;;17.63;47.33;100376.84;5470863;26;20515;-59
2024/04/10 06:51:05;;;;;;;0.10;0.10;;;;;;;17.54;47.33;100389.25;5456205;26;20037;-59
2024/04/10 06:53:34;;;;;;;0.10;0.10;;;;;;;17.09;49.02;100392.41;5453429;26;20020;-59
2024/04/10 06:56:01;;;;;;;0.10;0.10;;;;;;;17.81;46.36;100399.22;5445134;26;20078;-59
2024/04/10 06:58:31;;;;;;;0.10;0.10;;;;;;;17.09;48.71;100397.81;5423990;26;19998;-59
2024/04/10 07:00:57;;;;;;;0.10;0.10;;;;;;;17.10;48.20;100394.88;5466418;26;19999;-59
2024/04/10 07:03:26;;;;;;;0.10;0.10;;;;;;;18.47;46.94;100396.84;5465235;26;20062;-58
2024/04/10 07:06:01;;;;;;;0.10;0.10;;;;;;;17.41;48.88;100405.94;5421550;26;19999;-59
2024/04/10 07:08:32;;;;;;;0.10;0.10;;;;;;;17.76;48.01;100399.97;5454722;26;21014;-59
2024/04/10 07:10:58;;;;;;;0.10;0.10;;;;;;;18.03;48.23;100407.22;5430918;26;20003;-59
2024/04/10 07:13:27;;;;;;;0.10;0.10;;;;;;;17.74;47.30;100395.88;5465394;26;20006;-59
2024/04/10 07:15:58;;;;;;;0.10;0.10;;;;;;;17.27;47.65;100405.56;5437752;26;20010;-58
2024/04/10 07:18:29;;;;;;;0.10;0.10;;;;;;;17.54;48.00;100399.28;5466722;26;20020;-59
2024/04/10 07:21:01;;;;;;;0.10;0.10;;;;;;;18.30;46.17;100402.47;5451342;26;20017;-58
2024/04/10 07:23:33;;;;;;;0.10;0.10;;;;;;;18.36;46.22;100406.00;5445830;26;19999;-59
2024/04/10 07:26:09;;;;;;;0.10;0.10;;;;;;;17.25;47.98;100411.25;5451655;26;20002;-59
2024/04/10 07:28:38;;;;;;;0.10;0.10;;;;;;;17.65;47.40;100417.25;5457413;26;20010;-59
2024/04/10 07:31:04;;;;;;;0.10;0.10;;;;;;;17.81;46.20;100421.72;5463536;26;19998;-59
2024/04/10 07:33:33;;;;;;;0.10;0.10;;;;;;;17.75;46.31;100425.47;5428603;26;20248;-59
2024/04/10 07:36:07;;;;;;;0.00;0.00;;;;;;;16.73;48.71;100421.81;5452360;26;20038;-58
2024/04/10 07:38:38;;;;;;;0.00;0.00;;;;;;;17.30;47.91;100432.16;5460830;26;20053;-58
2024/04/10 07:41:04;;;;;;;0.00;0.00;;;;;;;15.72;51.36;100434.56;5440071;26;20025;-59
2024/04/10 07:43:34;;;;;;;0.00;0.00;;;;;;;15.45;51.94;100438.94;5461761;26;19999;-59
2024/04/10 07:46:06;;;;;;;0.10;0.10;;;;;;;15.19;52.30;100435.81;5472070;26;20002;-59
2024/04/10 07:48:35;;;;;;;0.00;0.00;;;;;;;14.76;53.72;100441.78;5457750;26;20760;-59
2024/04/10 07:51:02;;;;;;;0.03;0.03;;;;;;;14.96;53.51;100452.16;5450634;26;20014;-59
2024/04/10 07:53:31;;;;;;;0.00;0.00;;;;;;;14.55;56.65;100452.16;5460927;26;20006;-58
2024/04/10 07:55:59;;;;;;;0.10;0.10;;;;;;;14.79;55.26;100461.00;5462441;26;20107;-58
2024/04/10 07:58:28;;;;;;;0.10;0.10;;;;;;;16.48;51.88;100460.22;5437900;26;20492;-59
2024/04/10 08:00:57;;;;;;;0.10;0.10;;;;;;;17.63;48.59;100468.19;5467940;26;20005;-58
2024/04/10 08:03:26;;;;;;;0.10;0.10;;;;;;;18.14;46.92;100471.28;5468036;26;20522;-59
2024/04/10 08:05:52;;;;;;;0.10;0.10;;;;;;;17.70;46.14;100476.94;5448514;26;20579;-59
2024/04/10 08:08:21;;;;;;;0.10;0.10;;;;;;;16.75;48.96;100473.81;5464386;26;19998;-59
2024/04/10 08:10:47;;;;;;;0.00;0.00;;;;;;;16.90;47.82;100476.72;5462514;26;20017;-58
2024/04/10 08:13:19;;;;;;;0.10;0.10;;;;;;;17.13;47.49;100480.22;5452630;26;20078;-58
2024/04/10 08:15:53;;;;;;;0.00;0.00;;;;;;;18.37;45.00;100489.06;5466556;26;20034;-58
2024/04/10 08:18:22;;;;;;;0.00;0.00;;;;;;;18.37;44.42;100485.53;5468026;26;20002;-59
2024/04/10 08:20:56;;;;;;;0.00;0.00;;;;;;;16.86;47.21;100486.41;5425805;26;20017;-59
2024/04/10 08:23:25;;;;;;;0.10;0.10;;;;;;;16.11;48.48;100485.97;5454379;26;20419;-59
2024/04/10 08:25:51;;;;;;;0.05;0.05;;;;;;;17.07;46.33;100489.34;5468152;26;20467;-59
2024/04/10 08:28:24;;;;;;;0.00;0.00;;;;;;;18.11;44.63;100496.22;5467533;26;20002;-59
2024/04/10 08:30:51;;;;;;;0.10;0.10;;;;;;;17.91;44.61;100485.25;5458614;26;20006;-59
2024/04/10 08:33:20;;;;;;;0.10;0.10;;;;;;;18.79;43.23;100487.38;5458292;26;20006;-58
2024/04/10 08:35:52;;;;;;;0.00;0.00;;;;;;;18.51;43.17;100490.22;5465791;26;20417;-59
2024/04/10 08:38:21;;;;;;;0.00;0.00;;;;;;;15.64;48.14;100486.28;5437199;26;20013;-59
2024/04/10 08:40:47;;;;;;;0.00;0.00;;;;;;;15.31;49.85;100500.59;5468724;26;19999;-58
2024/04/10 08:43:16;;;;;;;0.00;0.00;;;;;;;14.79;50.88;100506.88;5476469;26;20020;-59
2024/04/10 08:45:45;;;;;;;0.00;0.00;;;;;;;14.41;51.90;100510.91;5434124;26;20547;-58
2024/04/10 08:48:13;;;;;;;0.00;0.00;;;;;;;13.92;53.68;100512.22;5455390;26;20805;-59
2024/04/10 08:50:40;;;;;;;0.10;0.10;;;;;;;13.41;52.67;100521.72;5440554;26;20017;-59
2024/04/10 08:53:08;;;;;;;0.00;0.00;;;;;;;12.95;54.36;100519.41;5468565;26;20419;-59
2024/04/10 08:55:34;;;;;;;0.00;0.00;;;;;;;12.99;55.07;100525.16;5470509;26;20010;-59
2024/04/10 08:58:03;;;;;;;0.00;0.00;;;;;;;12.76;56.14;100522.34;5466264;26;20036;-59
2024/04/10 09:00:29;;;;;;;0.00;0.00;;;;;;;13.05;55.61;100524.22;5463008;26;20077;-59
2024/04/10 09:03:01;;;;;;;0.10;0.10;;;;;;;13.05;55.09;100529.59;5462164;26;20015;-59
2024/04/10 09:05:30;;;;;;;0.10;0.10;;;;;;;13.16;52.88;100531.53;5431855;26;20010;-59
2024/04/10 09:07:59;;;;;;;0.10;0.10;;;;;;;13.92;51.49;100534.59;5464682;26;20623;-58
2024/04/10 09:10:28;;;;;;;0.10;0.10;;;;;;;15.06;49.03;100534.16;5443770;26;20091;-59
2024/04/10 09:13:01;;;;;;;0.10;0.10;;;;;;;16.63;44.78;100538.09;5461661;26;20034;-59
2024/04/10 09:15:30;;;;;;;0.10;0.10;;;;;;;15.54;47.12;100540.97;5468512;26;20627;-59
2024/04/10 09:17:59;;;;;;;0.10;0.10;;;;;;;14.88;48.57;100543.25;5454226;26;20006;-59
2024/04/10 09:20:28;;;;;;;0.00;0.00;;;;;;;14.41;48.72;100543.28;5466840;26;20072;-59
2024/04/10 09:22:58;;;;;;;0.10;0.10;;;;;;;14.30;49.23;100536.00;5465960;26;20021;-59
2024/04/10 09:25:26;;;;;;;;;;;;;;;13.89;48.37;100545.84;5456813;26;20020;-59
2024/04/10 09:27:58;;;;;;;0.10;0.10;;;;;;;13.83;50.67;100541.38;5464983;26;19923;-59
2024/04/10 09:30:26;;;;;;;0.00;0.00;;;;;;;13.73;50.30;100547.34;5466582;26;20035;-59
2024/04/10 09:32:53;;;;;;;0.10;0.10;;;;;;;13.69;52.71;100553.41;5458835;26;20018;-59
2024/04/10 09:35:26;;;;;;;0.10;0.10;;;;;;;13.03;53.63;100550.56;5458916;26;20045;-59
2024/04/10 09:37:55;;;;;;;0.10;0.10;;;;;;;12.97;55.94;100542.56;5464701;26;20006;-59
2024/04/10 09:40:25;;;;;;;0.10;0.10;;;;;;;12.97;55.42;100547.94;5459301;26;20045;-59
2024/04/10 09:42:56;;;;;;;0.10;0.10;;;;;;;13.24;53.19;100548.44;5457612;26;20045;-59
2024/04/10 09:45:27;;;;;;;0.10;0.10;;;;;;;13.57;52.26;100556.06;5454414;26;20792;-59
2024/04/10 09:47:53;;;;;;;;;;;;;;;13.65;53.26;100552.22;5466254;26;19998;-59
2024/04/10 09:50:21;;;;;;;0.10;0.10;;;;;;;13.82;52.48;100545.13;5460698;26;19930;-59
2024/04/10 09:52:51;;;;;;;0.10;0.10;;;;;;;13.88;51.64;100549.59;5465909;26;20044;-59
2024/04/10 09:55:20;;;;;;;0.10;0.10;;;;;;;14.37;50.00;100543.97;5451317;26;20022;-59
2024/04/10 09:57:46;;;;;;;0.10;0.10;;;;;;;15.08;48.27;100547.41;5458419;26;20003;-59
2024/04/10 10:00:15;;;;;;;0.10;0.10;;;;;;;15.07;48.52;100551.16;5460714;26;20021;-59
2024/04/10 10:02:41;;;;;;;0.10;0.10;;;;;;;15.26;48.47;100552.63;5435293;26;20386;-58
2024/04/10 10:05:21;;;;;;;0.03;0.03;;;;;;;15.59;46.90;100559.16;5455354;26;20003;-59
2024/04/10 10:07:52;;;;;;;0.10;0.10;;;;;;;15.20;46.35;100550.06;5455025;26;20002;-59
2024/04/10 10:10:20;;;;;;;0.00;0.00;;;;;;;15.30;45.97;100556.50;5392405;26;20959;-58
2024/04/10 10:14:20;;;;;;;0.10;0.10;;;;;;;15.14;47.61;100551.03;5458726;25;20521;-58
2024/04/10 10:16:46;;;;;;;0.10;0.10;;;;;;;15.60;46.06;100559.97;5445565;26;20552;-57
2024/04/10 10:19:21;;;;;;;0.10;0.10;;;;;;;15.48;47.00;100557.34;5437968;26;20021;-57
2024/04/10 10:21:47;;;;;;;0.17;0.17;;;;;;;16.46;44.15;100565.19;5438201;26;19999;-58
2024/04/10 10:24:16;;;;;;;0.00;0.00;;;;;;;16.42;46.20;100566.72;5453482;26;20003;-57
2024/04/10 10:26:42;;;;;;;0.10;0.10;;;;;;;16.38;45.57;100566.44;5445052;26;20099;-58
2024/04/10 10:29:11;;;;;;;0.05;0.05;;;;;;;16.22;45.00;100567.25;5437130;26;20018;-58
2024/04/10 10:31:40;;;;;;;0.10;0.10;;;;;;;16.13;46.13;100566.84;5428594;26;20042;-58
2024/04/10 10:34:12;;;;;;;0.10;0.10;;;;;;;15.84;46.20;100571.50;5440321;26;20006;-57
2024/04/10 10:36:40;;;;;;;0.03;0.03;;;;;;;15.81;45.34;100575.53;5431212;26;20035;-58
2024/04/10 10:39:14;;;;;;;0.10;0.10;;;;;;;15.92;45.84;100571.09;5445675;26;20006;-59
2024/04/10 10:41:40;;;;;;;0.10;0.10;;;;;;;17.24;42.76;100572.16;5439729;26;20010;-58
2024/04/10 10:44:09;;;;;;;0.10;0.10;;;;;;;16.82;42.96;100574.63;5430484;26;20014;-58
2024/04/10 10:46:35;;;;;;;0.00;0.00;;;;;;;16.43;44.67;100580.03;5438741;26;20011;-60
2024/04/10 10:49:07;;;;;;;0.03;0.03;;;;;;;16.93;43.34;100575.59;5443087;26;20022;-58
2024/04/10 10:51:33;;;;;;;0.00;0.00;;;;;;;16.05;44.49;100568.09;5448087;26;20014;-58
2024/04/10 10:54:03;;;;;;;0.10;0.10;;;;;;;15.82;44.18;100569.03;5445270;26;20007;-58
2024/04/10 10:56:30;;;;;;;0.00;0.00;;;;;;;14.94;45.03;100575.72;5437834;26;20046;-58
2024/04/10 10:59:09;;;;;;;0.08;0.08;;;;;;;14.48;45.98;100564.75;5438180;26;20122;-58
2024/04/10 11:01:35;;;;;;;0.10;0.10;;;;;;;15.02;46.84;100576.16;5435035;26;20564;-58
2024/04/10 11:04:11;;;;;;;0.10;0.10;;;;;;;15.19;45.24;100581.63;5442556;26;20002;-59
2024/04/10 11:06:37;;;;;;;0.00;0.00;;;;;;;13.98;48.24;100568.72;5431097;26;20452;-58
2024/04/10 11:09:09;;;;;;;0.10;0.10;;;;;;;12.95;51.28;100577.75;5431692;26;20015;-58
2024/04/10 11:11:35;;;;;;;0.10;0.10;;;;;;;13.67;51.51;100579.75;5431846;26;20007;-58
2024/04/10 11:14:04;;;;;;;0.10;0.10;;;;;;;14.38;48.29;100573.44;5444421;26;20031;-58
2024/04/10 11:16:31;;;;;;;0.10;0.10;;;;;;;15.08;47.83;100577.13;5435220;26;20019;-59
2024/04/10 11:19:00;;;;;;;0.10;0.10;;;;;;;14.82;48.78;100575.75;5433404;26;20063;-59
2024/04/10 11:21:29;;;;;;;0.10;0.10;;;;;;;16.08;45.11;100573.00;5434001;26;20018;-58
2024/04/10 11:23:57;;;;;;;0.20;0.10;;;;;;;16.52;44.04;100573.09;5430226;26;20007;-58
2024/04/10 11:26:24;;;;;;;0.10;0.10;;;;;;;15.68;45.49;100576.63;5415975;26;20084;-59
2024/04/10 11:28:55;;;;;;;0.03;0.03;;;;;;;16.33;44.27;100569.06;5424073;26;20532;-58
2024/04/10 11:31:21;;;;;;;0.10;0.10;;;;;;;16.29;44.33;100578.72;5417296;26;19999;-58
2024/04/10 11:33:50;;;;;;;0.00;0.00;;;;;;;13.83;50.12;100573.72;5414781;26;20436;-59
2024/04/10 11:36:16;;;;;;;0.13;0.13;;;;;;;14.78;47.76;100570.03;5417001;26;20047;-58
2024/04/10 11:38:50;;;;;;;0.10;0.10;;;;;;;16.14;45.21;100560.38;5424973;26;20833;-58